sensor_id;sensor_type;location;lat;lon;timestamp;P1;durP1;ratioP1;P2;durP2;ratioP2
9062;SDS011;4567;42.118;24.746;2022-12-15T00:02:23;60.87;;;42.90;;
9062;SDS011;4567;42.118;24.746;2022-12-15T00:05:07;60.83;;;42.67;;
9062;SDS011;4567;42.118;24.746;2022-12-15T00:07:53;60.70;;;43.10;;
9062;SDS011;4567;42.118;24.746;2022-12-15T00:10:37;65.10;;;44.70;;
9062;SDS011;4567;42.118;24.746;2022-12-15T00:13:21;60.87;;;42.17;;
9062;SDS011;4567;42.118;24.746;2022-12-15T00:16:05;60.33;;;42.53;;
9062;SDS011;4567;42.118;24.746;2022-12-15T00:18:50;67.60;;;45.20;;
9062;SDS011;4567;42.118;24.746;2022-12-15T00:21:35;64.77;;;44.10;;
9062;SDS011;4567;42.118;24.746;2022-12-15T00:24:20;58.03;;;41.67;;
9062;SDS011;4567;42.118;24.746;2022-12-15T00:27:04;55.77;;;40.50;;
9062;SDS011;4567;42.118;24.746;2022-12-15T00:29:48;58.37;;;40.60;;
9062;SDS011;4567;42.118;24.746;2022-12-15T00:32:32;58.97;;;39.20;;
9062;SDS011;4567;42.118;24.746;2022-12-15T00:35:17;62.40;;;42.23;;
9062;SDS011;4567;42.118;24.746;2022-12-15T00:38:05;63.67;;;41.97;;
9062;SDS011;4567;42.118;24.746;2022-12-15T00:40:51;55.03;;;40.73;;
9062;SDS011;4567;42.118;24.746;2022-12-15T00:43:23;58.60;;;42.20;;
9062;SDS011;4567;42.118;24.746;2022-12-15T00:45:49;60.03;;;41.70;;
9062;SDS011;4567;42.118;24.746;2022-12-15T00:48:34;60.97;;;42.93;;
9062;SDS011;4567;42.118;24.746;2022-12-15T00:51:00;63.10;;;43.93;;
9062;SDS011;4567;42.118;24.746;2022-12-15T00:53:26;64.17;;;44.37;;
9062;SDS011;4567;42.118;24.746;2022-12-15T00:56:11;62.73;;;42.87;;
9062;SDS011;4567;42.118;24.746;2022-12-15T00:58:55;91.00;;;54.97;;
9062;SDS011;4567;42.118;24.746;2022-12-15T01:01:40;76.13;;;47.77;;
9062;SDS011;4567;42.118;24.746;2022-12-15T01:04:24;79.93;;;48.37;;
9062;SDS011;4567;42.118;24.746;2022-12-15T01:07:08;72.80;;;47.90;;
9062;SDS011;4567;42.118;24.746;2022-12-15T01:09:53;69.63;;;46.20;;
9062;SDS011;4567;42.118;24.746;2022-12-15T01:12:38;64.23;;;44.77;;
9062;SDS011;4567;42.118;24.746;2022-12-15T01:15:23;61.67;;;45.67;;
9062;SDS011;4567;42.118;24.746;2022-12-15T01:18:07;62.43;;;44.67;;
9062;SDS011;4567;42.118;24.746;2022-12-15T01:20:54;63.97;;;45.90;;
9062;SDS011;4567;42.118;24.746;2022-12-15T01:23:22;60.43;;;44.47;;
9062;SDS011;4567;42.118;24.746;2022-12-15T01:25:49;65.90;;;45.63;;
9062;SDS011;4567;42.118;24.746;2022-12-15T01:28:17;61.80;;;45.73;;
9062;SDS011;4567;42.118;24.746;2022-12-15T01:30:44;61.13;;;44.60;;
9062;SDS011;4567;42.118;24.746;2022-12-15T01:33:11;63.87;;;45.17;;
9062;SDS011;4567;42.118;24.746;2022-12-15T01:35:38;65.30;;;46.07;;
9062;SDS011;4567;42.118;24.746;2022-12-15T01:38:04;64.23;;;45.53;;
9062;SDS011;4567;42.118;24.746;2022-12-15T01:40:31;62.90;;;44.60;;
9062;SDS011;4567;42.118;24.746;2022-12-15T01:43:14;65.17;;;45.30;;
9062;SDS011;4567;42.118;24.746;2022-12-15T01:45:48;69.73;;;46.50;;
9062;SDS011;4567;42.118;24.746;2022-12-15T01:48:19;67.50;;;46.97;;
9062;SDS011;4567;42.118;24.746;2022-12-15T01:50:52;71.07;;;48.93;;
9062;SDS011;4567;42.118;24.746;2022-12-15T01:53:24;71.63;;;48.10;;
9062;SDS011;4567;42.118;24.746;2022-12-15T01:55:52;69.83;;;47.77;;
9062;SDS011;4567;42.118;24.746;2022-12-15T01:58:19;71.87;;;48.27;;
9062;SDS011;4567;42.118;24.746;2022-12-15T02:00:48;72.37;;;49.33;;
9062;SDS011;4567;42.118;24.746;2022-12-15T02:03:15;75.37;;;49.40;;
9062;SDS011;4567;42.118;24.746;2022-12-15T02:05:42;75.97;;;49.93;;
9062;SDS011;4567;42.118;24.746;2022-12-15T02:08:11;76.10;;;50.20;;
9062;SDS011;4567;42.118;24.746;2022-12-15T02:10:40;75.23;;;49.87;;
9062;SDS011;4567;42.118;24.746;2022-12-15T02:13:21;75.27;;;50.37;;
9062;SDS011;4567;42.118;24.746;2022-12-15T02:15:56;76.00;;;50.90;;
9062;SDS011;4567;42.118;24.746;2022-12-15T02:18:30;74.63;;;49.23;;
9062;SDS011;4567;42.118;24.746;2022-12-15T02:21:01;71.63;;;48.33;;
9062;SDS011;4567;42.118;24.746;2022-12-15T02:30:05;79.80;;;50.87;;
9062;SDS011;4567;42.118;24.746;2022-12-15T02:32:56;76.57;;;46.97;;
9062;SDS011;4567;42.118;24.746;2022-12-15T02:35:29;70.37;;;46.97;;
9062;SDS011;4567;42.118;24.746;2022-12-15T02:38:02;73.17;;;45.53;;
9062;SDS011;4567;42.118;24.746;2022-12-15T02:40:29;71.57;;;46.30;;
9062;SDS011;4567;42.118;24.746;2022-12-15T02:42:56;70.47;;;46.20;;
9062;SDS011;4567;42.118;24.746;2022-12-15T02:45:30;69.93;;;44.53;;
9062;SDS011;4567;42.118;24.746;2022-12-15T02:48:04;67.07;;;44.43;;
9062;SDS011;4567;42.118;24.746;2022-12-15T02:50:50;62.27;;;42.70;;
9062;SDS011;4567;42.118;24.746;2022-12-15T02:56:22;64.27;;;41.17;;
9062;SDS011;4567;42.118;24.746;2022-12-15T02:58:56;61.90;;;40.13;;
9062;SDS011;4567;42.118;24.746;2022-12-15T03:01:31;58.03;;;37.83;;
9062;SDS011;4567;42.118;24.746;2022-12-15T03:04:02;58.17;;;39.37;;
9062;SDS011;4567;42.118;24.746;2022-12-15T03:06:32;57.37;;;38.37;;
9062;SDS011;4567;42.118;24.746;2022-12-15T03:08:58;56.57;;;38.50;;
9062;SDS011;4567;42.118;24.746;2022-12-15T03:11:25;58.10;;;38.60;;
9062;SDS011;4567;42.118;24.746;2022-12-15T03:13:52;53.67;;;38.27;;
9062;SDS011;4567;42.118;24.746;2022-12-15T03:16:19;57.47;;;37.53;;
9062;SDS011;4567;42.118;24.746;2022-12-15T03:18:48;53.87;;;36.20;;
9062;SDS011;4567;42.118;24.746;2022-12-15T03:21:15;53.97;;;36.73;;
9062;SDS011;4567;42.118;24.746;2022-12-15T03:23:41;53.63;;;36.10;;
9062;SDS011;4567;42.118;24.746;2022-12-15T03:26:08;55.30;;;37.07;;
9062;SDS011;4567;42.118;24.746;2022-12-15T03:28:36;51.07;;;33.87;;
9062;SDS011;4567;42.118;24.746;2022-12-15T03:31:02;51.80;;;34.33;;
9062;SDS011;4567;42.118;24.746;2022-12-15T03:33:30;48.00;;;33.73;;
9062;SDS011;4567;42.118;24.746;2022-12-15T03:35:59;48.33;;;32.40;;
9062;SDS011;4567;42.118;24.746;2022-12-15T03:38:26;45.20;;;31.93;;
9062;SDS011;4567;42.118;24.746;2022-12-15T03:40:52;46.20;;;31.50;;
9062;SDS011;4567;42.118;24.746;2022-12-15T03:43:19;42.57;;;30.53;;
9062;SDS011;4567;42.118;24.746;2022-12-15T03:45:46;53.77;;;35.07;;
9062;SDS011;4567;42.118;24.746;2022-12-15T03:48:13;41.67;;;29.47;;
9062;SDS011;4567;42.118;24.746;2022-12-15T03:50:40;40.43;;;29.30;;
9062;SDS011;4567;42.118;24.746;2022-12-15T03:53:08;41.77;;;29.53;;
9062;SDS011;4567;42.118;24.746;2022-12-15T03:55:34;39.50;;;29.10;;
9062;SDS011;4567;42.118;24.746;2022-12-15T03:58:01;40.47;;;29.83;;
9062;SDS011;4567;42.118;24.746;2022-12-15T04:00:28;47.10;;;29.40;;
9062;SDS011;4567;42.118;24.746;2022-12-15T04:02:55;44.80;;;30.40;;
9062;SDS011;4567;42.118;24.746;2022-12-15T04:05:22;41.30;;;30.37;;
9062;SDS011;4567;42.118;24.746;2022-12-15T04:07:51;43.83;;;31.00;;
9062;SDS011;4567;42.118;24.746;2022-12-15T04:10:19;45.60;;;32.53;;
9062;SDS011;4567;42.118;24.746;2022-12-15T04:12:46;46.87;;;32.93;;
9062;SDS011;4567;42.118;24.746;2022-12-15T04:15:12;46.63;;;32.10;;
9062;SDS011;4567;42.118;24.746;2022-12-15T04:17:39;44.87;;;32.47;;
9062;SDS011;4567;42.118;24.746;2022-12-15T04:20:06;44.90;;;32.23;;
9062;SDS011;4567;42.118;24.746;2022-12-15T04:22:33;44.83;;;31.13;;
9062;SDS011;4567;42.118;24.746;2022-12-15T04:25:00;46.07;;;33.20;;
9062;SDS011;4567;42.118;24.746;2022-12-15T04:27:46;47.57;;;32.83;;
9062;SDS011;4567;42.118;24.746;2022-12-15T04:30:30;47.47;;;34.13;;
9062;SDS011;4567;42.118;24.746;2022-12-15T04:33:15;49.60;;;34.33;;
9062;SDS011;4567;42.118;24.746;2022-12-15T04:35:59;51.60;;;35.37;;
9062;SDS011;4567;42.118;24.746;2022-12-15T04:38:44;48.67;;;35.03;;
9062;SDS011;4567;42.118;24.746;2022-12-15T04:41:28;48.07;;;33.93;;
9062;SDS011;4567;42.118;24.746;2022-12-15T04:44:16;46.03;;;33.70;;
9062;SDS011;4567;42.118;24.746;2022-12-15T04:47:00;47.70;;;33.80;;
9062;SDS011;4567;42.118;24.746;2022-12-15T04:49:44;45.00;;;33.23;;
9062;SDS011;4567;42.118;24.746;2022-12-15T04:52:28;52.10;;;35.50;;
9062;SDS011;4567;42.118;24.746;2022-12-15T04:55:12;51.17;;;35.30;;
9062;SDS011;4567;42.118;24.746;2022-12-15T04:57:57;49.23;;;34.60;;
9062;SDS011;4567;42.118;24.746;2022-12-15T05:00:47;47.53;;;33.83;;
9062;SDS011;4567;42.118;24.746;2022-12-15T05:03:32;51.57;;;35.07;;
9062;SDS011;4567;42.118;24.746;2022-12-15T05:06:16;50.43;;;34.87;;
9062;SDS011;4567;42.118;24.746;2022-12-15T05:09:00;55.37;;;35.53;;
9062;SDS011;4567;42.118;24.746;2022-12-15T05:11:45;48.07;;;34.23;;
9062;SDS011;4567;42.118;24.746;2022-12-15T05:14:29;51.70;;;35.60;;
9062;SDS011;4567;42.118;24.746;2022-12-15T05:17:14;47.63;;;34.43;;
9062;SDS011;4567;42.118;24.746;2022-12-15T05:19:58;48.33;;;34.30;;
9062;SDS011;4567;42.118;24.746;2022-12-15T05:22:42;50.23;;;35.43;;
9062;SDS011;4567;42.118;24.746;2022-12-15T05:25:26;51.00;;;34.93;;
9062;SDS011;4567;42.118;24.746;2022-12-15T05:28:10;47.50;;;33.43;;
9062;SDS011;4567;42.118;24.746;2022-12-15T05:30:54;52.30;;;34.27;;
9062;SDS011;4567;42.118;24.746;2022-12-15T05:33:39;50.47;;;34.97;;
9062;SDS011;4567;42.118;24.746;2022-12-15T05:36:06;53.03;;;36.67;;
9062;SDS011;4567;42.118;24.746;2022-12-15T05:38:33;53.13;;;34.73;;
9062;SDS011;4567;42.118;24.746;2022-12-15T05:41:00;51.23;;;34.80;;
9062;SDS011;4567;42.118;24.746;2022-12-15T05:43:27;54.00;;;34.67;;
9062;SDS011;4567;42.118;24.746;2022-12-15T05:45:54;50.70;;;34.27;;
9062;SDS011;4567;42.118;24.746;2022-12-15T05:48:20;53.83;;;35.83;;
9062;SDS011;4567;42.118;24.746;2022-12-15T05:50:48;52.23;;;35.13;;
9062;SDS011;4567;42.118;24.746;2022-12-15T05:53:15;50.67;;;34.43;;
9062;SDS011;4567;42.118;24.746;2022-12-15T05:55:42;53.23;;;34.50;;
9062;SDS011;4567;42.118;24.746;2022-12-15T05:58:08;51.10;;;33.37;;
9062;SDS011;4567;42.118;24.746;2022-12-15T06:00:35;53.73;;;33.63;;
9062;SDS011;4567;42.118;24.746;2022-12-15T06:03:02;49.30;;;32.10;;
9062;SDS011;4567;42.118;24.746;2022-12-15T06:05:31;49.03;;;32.33;;
9062;SDS011;4567;42.118;24.746;2022-12-15T06:08:07;54.00;;;32.93;;
9062;SDS011;4567;42.118;24.746;2022-12-15T06:10:33;51.00;;;32.80;;
9062;SDS011;4567;42.118;24.746;2022-12-15T06:13:00;47.77;;;32.60;;
9062;SDS011;4567;42.118;24.746;2022-12-15T06:15:27;49.50;;;33.13;;
9062;SDS011;4567;42.118;24.746;2022-12-15T06:17:53;50.47;;;33.03;;
9062;SDS011;4567;42.118;24.746;2022-12-15T06:20:20;52.37;;;33.63;;
9062;SDS011;4567;42.118;24.746;2022-12-15T06:22:47;52.23;;;35.03;;
9062;SDS011;4567;42.118;24.746;2022-12-15T06:25:15;53.37;;;33.97;;
9062;SDS011;4567;42.118;24.746;2022-12-15T06:27:42;53.50;;;32.77;;
9062;SDS011;4567;42.118;24.746;2022-12-15T06:30:09;49.33;;;32.77;;
9062;SDS011;4567;42.118;24.746;2022-12-15T06:32:36;50.23;;;33.40;;
9062;SDS011;4567;42.118;24.746;2022-12-15T06:35:03;52.30;;;32.60;;
9062;SDS011;4567;42.118;24.746;2022-12-15T06:37:30;57.90;;;35.17;;
9062;SDS011;4567;42.118;24.746;2022-12-15T06:39:57;49.87;;;33.50;;
9062;SDS011;4567;42.118;24.746;2022-12-15T06:42:26;57.33;;;33.30;;
9062;SDS011;4567;42.118;24.746;2022-12-15T06:44:52;50.13;;;32.47;;
9062;SDS011;4567;42.118;24.746;2022-12-15T06:47:19;50.50;;;31.30;;
9062;SDS011;4567;42.118;24.746;2022-12-15T06:49:46;49.03;;;30.47;;
9062;SDS011;4567;42.118;24.746;2022-12-15T06:52:12;52.27;;;32.23;;
9062;SDS011;4567;42.118;24.746;2022-12-15T06:54:39;48.23;;;31.73;;
9062;SDS011;4567;42.118;24.746;2022-12-15T06:57:06;50.73;;;31.20;;
9062;SDS011;4567;42.118;24.746;2022-12-15T06:59:34;51.97;;;31.93;;
9062;SDS011;4567;42.118;24.746;2022-12-15T07:02:01;48.83;;;31.10;;
9062;SDS011;4567;42.118;24.746;2022-12-15T07:04:27;44.93;;;28.27;;
9062;SDS011;4567;42.118;24.746;2022-12-15T07:06:56;48.90;;;29.93;;
9062;SDS011;4567;42.118;24.746;2022-12-15T07:09:23;48.50;;;28.93;;
9062;SDS011;4567;42.118;24.746;2022-12-15T07:11:51;45.20;;;29.27;;
9062;SDS011;4567;42.118;24.746;2022-12-15T07:14:18;48.70;;;29.07;;
9062;SDS011;4567;42.118;24.746;2022-12-15T07:16:46;42.33;;;27.53;;
9062;SDS011;4567;42.118;24.746;2022-12-15T07:19:13;48.03;;;27.90;;
9062;SDS011;4567;42.118;24.746;2022-12-15T07:21:39;46.30;;;28.07;;
9062;SDS011;4567;42.118;24.746;2022-12-15T07:24:08;49.97;;;30.73;;
9062;SDS011;4567;42.118;24.746;2022-12-15T07:26:35;44.47;;;29.90;;
9062;SDS011;4567;42.118;24.746;2022-12-15T07:29:02;45.57;;;28.77;;
9062;SDS011;4567;42.118;24.746;2022-12-15T07:31:28;47.17;;;29.40;;
9062;SDS011;4567;42.118;24.746;2022-12-15T07:33:57;46.60;;;28.60;;
9062;SDS011;4567;42.118;24.746;2022-12-15T07:36:23;48.27;;;30.60;;
9062;SDS011;4567;42.118;24.746;2022-12-15T07:38:55;48.13;;;29.20;;
9062;SDS011;4567;42.118;24.746;2022-12-15T07:41:22;44.13;;;27.73;;
9062;SDS011;4567;42.118;24.746;2022-12-15T07:43:49;44.90;;;27.40;;
9062;SDS011;4567;42.118;24.746;2022-12-15T07:46:16;40.13;;;25.17;;
9062;SDS011;4567;42.118;24.746;2022-12-15T07:48:43;40.57;;;25.40;;
9062;SDS011;4567;42.118;24.746;2022-12-15T07:51:11;40.73;;;24.87;;
9062;SDS011;4567;42.118;24.746;2022-12-15T07:53:38;40.23;;;25.07;;
9062;SDS011;4567;42.118;24.746;2022-12-15T07:56:05;42.23;;;24.97;;
9062;SDS011;4567;42.118;24.746;2022-12-15T07:58:32;36.00;;;23.03;;
9062;SDS011;4567;42.118;24.746;2022-12-15T08:00:59;38.07;;;23.57;;
9062;SDS011;4567;42.118;24.746;2022-12-15T08:03:27;42.97;;;26.53;;
9062;SDS011;4567;42.118;24.746;2022-12-15T08:05:55;36.57;;;22.37;;
9062;SDS011;4567;42.118;24.746;2022-12-15T08:08:23;34.23;;;21.57;;
9062;SDS011;4567;42.118;24.746;2022-12-15T08:10:49;33.40;;;19.57;;
9062;SDS011;4567;42.118;24.746;2022-12-15T08:13:16;30.70;;;19.93;;
9062;SDS011;4567;42.118;24.746;2022-12-15T08:15:43;29.73;;;18.23;;
9062;SDS011;4567;42.118;24.746;2022-12-15T08:18:10;30.63;;;18.83;;
9062;SDS011;4567;42.118;24.746;2022-12-15T08:20:37;31.17;;;19.73;;
9062;SDS011;4567;42.118;24.746;2022-12-15T08:23:04;29.67;;;19.53;;
9062;SDS011;4567;42.118;24.746;2022-12-15T08:25:32;31.97;;;19.17;;
9062;SDS011;4567;42.118;24.746;2022-12-15T08:28:00;28.07;;;18.50;;
9062;SDS011;4567;42.118;24.746;2022-12-15T08:30:26;29.33;;;18.67;;
9062;SDS011;4567;42.118;24.746;2022-12-15T08:32:54;25.60;;;16.67;;
9062;SDS011;4567;42.118;24.746;2022-12-15T08:35:20;27.37;;;16.60;;
9062;SDS011;4567;42.118;24.746;2022-12-15T08:37:47;22.50;;;14.97;;
9062;SDS011;4567;42.118;24.746;2022-12-15T08:40:14;21.60;;;15.03;;
9062;SDS011;4567;42.118;24.746;2022-12-15T08:42:42;23.97;;;16.23;;
9062;SDS011;4567;42.118;24.746;2022-12-15T08:45:09;23.60;;;16.20;;
9062;SDS011;4567;42.118;24.746;2022-12-15T08:47:37;20.47;;;15.00;;
9062;SDS011;4567;42.118;24.746;2022-12-15T08:50:05;25.70;;;16.93;;
9062;SDS011;4567;42.118;24.746;2022-12-15T08:52:33;21.87;;;14.90;;
9062;SDS011;4567;42.118;24.746;2022-12-15T08:55:08;21.63;;;15.40;;
9062;SDS011;4567;42.118;24.746;2022-12-15T08:57:38;21.53;;;15.23;;
9062;SDS011;4567;42.118;24.746;2022-12-15T09:00:11;25.13;;;15.13;;
9062;SDS011;4567;42.118;24.746;2022-12-15T09:02:38;20.97;;;15.63;;
9062;SDS011;4567;42.118;24.746;2022-12-15T09:05:05;22.90;;;15.20;;
9062;SDS011;4567;42.118;24.746;2022-12-15T09:07:32;18.33;;;13.63;;
9062;SDS011;4567;42.118;24.746;2022-12-15T09:09:59;16.87;;;12.73;;
9062;SDS011;4567;42.118;24.746;2022-12-15T09:12:26;15.53;;;12.13;;
9062;SDS011;4567;42.118;24.746;2022-12-15T09:14:52;17.37;;;12.17;;
9062;SDS011;4567;42.118;24.746;2022-12-15T09:17:21;18.93;;;13.20;;
9062;SDS011;4567;42.118;24.746;2022-12-15T09:19:47;20.50;;;14.37;;
9062;SDS011;4567;42.118;24.746;2022-12-15T09:22:14;20.40;;;14.17;;
9062;SDS011;4567;42.118;24.746;2022-12-15T09:24:40;26.87;;;16.17;;
9062;SDS011;4567;42.118;24.746;2022-12-15T09:27:07;20.37;;;14.63;;
9062;SDS011;4567;42.118;24.746;2022-12-15T09:29:34;18.80;;;13.67;;
9062;SDS011;4567;42.118;24.746;2022-12-15T09:32:01;16.70;;;12.40;;
9062;SDS011;4567;42.118;24.746;2022-12-15T09:34:30;20.17;;;14.70;;
9062;SDS011;4567;42.118;24.746;2022-12-15T09:36:57;21.53;;;13.97;;
9062;SDS011;4567;42.118;24.746;2022-12-15T09:39:24;19.27;;;12.77;;
9062;SDS011;4567;42.118;24.746;2022-12-15T09:41:52;19.73;;;13.57;;
9062;SDS011;4567;42.118;24.746;2022-12-15T09:44:23;14.97;;;11.67;;
9062;SDS011;4567;42.118;24.746;2022-12-15T09:46:54;16.53;;;12.13;;
9062;SDS011;4567;42.118;24.746;2022-12-15T09:49:37;27.50;;;14.00;;
9062;SDS011;4567;42.118;24.746;2022-12-15T09:52:09;19.87;;;13.30;;
9062;SDS011;4567;42.118;24.746;2022-12-15T09:54:38;21.20;;;13.97;;
9062;SDS011;4567;42.118;24.746;2022-12-15T09:57:06;17.17;;;13.43;;
9062;SDS011;4567;42.118;24.746;2022-12-15T09:59:43;19.37;;;13.33;;
9062;SDS011;4567;42.118;24.746;2022-12-15T10:02:29;18.60;;;13.03;;
9062;SDS011;4567;42.118;24.746;2022-12-15T10:05:15;18.33;;;13.17;;
9062;SDS011;4567;42.118;24.746;2022-12-15T10:07:58;19.33;;;14.17;;
9062;SDS011;4567;42.118;24.746;2022-12-15T10:10:27;18.07;;;13.37;;
9062;SDS011;4567;42.118;24.746;2022-12-15T10:12:59;18.37;;;13.90;;
9062;SDS011;4567;42.118;24.746;2022-12-15T10:15:33;19.93;;;14.00;;
9062;SDS011;4567;42.118;24.746;2022-12-15T10:18:13;24.57;;;16.27;;
9062;SDS011;4567;42.118;24.746;2022-12-15T10:20:47;21.70;;;14.97;;
9062;SDS011;4567;42.118;24.746;2022-12-15T10:23:17;21.50;;;13.70;;
9062;SDS011;4567;42.118;24.746;2022-12-15T10:25:45;21.13;;;14.90;;
9062;SDS011;4567;42.118;24.746;2022-12-15T10:31:17;23.73;;;14.50;;
9062;SDS011;4567;42.118;24.746;2022-12-15T10:33:51;17.43;;;13.60;;
9062;SDS011;4567;42.118;24.746;2022-12-15T10:36:24;19.03;;;14.10;;
9062;SDS011;4567;42.118;24.746;2022-12-15T10:38:50;23.60;;;14.33;;
9062;SDS011;4567;42.118;24.746;2022-12-15T10:41:18;24.07;;;16.07;;
9062;SDS011;4567;42.118;24.746;2022-12-15T10:43:46;23.17;;;15.77;;
9062;SDS011;4567;42.118;24.746;2022-12-15T10:46:15;23.07;;;15.33;;
9062;SDS011;4567;42.118;24.746;2022-12-15T10:48:44;20.97;;;14.97;;
9062;SDS011;4567;42.118;24.746;2022-12-15T10:51:19;25.30;;;15.17;;
9062;SDS011;4567;42.118;24.746;2022-12-15T10:53:49;24.37;;;16.03;;
9062;SDS011;4567;42.118;24.746;2022-12-15T10:56:21;25.17;;;15.70;;
9062;SDS011;4567;42.118;24.746;2022-12-15T10:58:50;23.20;;;14.87;;
9062;SDS011;4567;42.118;24.746;2022-12-15T11:01:19;27.37;;;16.07;;
9062;SDS011;4567;42.118;24.746;2022-12-15T11:03:48;28.40;;;14.70;;
9062;SDS011;4567;42.118;24.746;2022-12-15T11:06:17;20.67;;;14.07;;
9062;SDS011;4567;42.118;24.746;2022-12-15T11:08:46;25.67;;;15.13;;
9062;SDS011;4567;42.118;24.746;2022-12-15T11:14:41;23.83;;;14.87;;
9062;SDS011;4567;42.118;24.746;2022-12-15T11:17:12;21.27;;;15.00;;
9062;SDS011;4567;42.118;24.746;2022-12-15T11:19:43;21.07;;;14.77;;
9062;SDS011;4567;42.118;24.746;2022-12-15T11:22:17;22.30;;;14.37;;
9062;SDS011;4567;42.118;24.746;2022-12-15T11:24:53;26.90;;;14.80;;
9062;SDS011;4567;42.118;24.746;2022-12-15T11:27:29;24.67;;;15.97;;
9062;SDS011;4567;42.118;24.746;2022-12-15T11:30:00;24.17;;;16.03;;
9062;SDS011;4567;42.118;24.746;2022-12-15T11:32:35;24.83;;;15.53;;
9062;SDS011;4567;42.118;24.746;2022-12-15T11:35:10;27.17;;;15.10;;
9062;SDS011;4567;42.118;24.746;2022-12-15T11:37:39;25.47;;;15.80;;
9062;SDS011;4567;42.118;24.746;2022-12-15T11:43:18;22.00;;;14.63;;
9062;SDS011;4567;42.118;24.746;2022-12-15T11:46:10;26.20;;;17.13;;
9062;SDS011;4567;42.118;24.746;2022-12-15T11:48:54;23.07;;;14.37;;
9062;SDS011;4567;42.118;24.746;2022-12-15T11:51:32;25.43;;;14.57;;
9062;SDS011;4567;42.118;24.746;2022-12-15T11:54:08;22.60;;;15.87;;
9062;SDS011;4567;42.118;24.746;2022-12-15T11:56:41;20.13;;;14.80;;
9062;SDS011;4567;42.118;24.746;2022-12-15T11:59:28;21.73;;;14.77;;
9062;SDS011;4567;42.118;24.746;2022-12-15T12:02:26;24.83;;;14.60;;
9062;SDS011;4567;42.118;24.746;2022-12-15T12:05:18;23.57;;;14.20;;
9062;SDS011;4567;42.118;24.746;2022-12-15T12:08:05;20.97;;;13.33;;
9062;SDS011;4567;42.118;24.746;2022-12-15T12:10:46;26.07;;;16.37;;
9062;SDS011;4567;42.118;24.746;2022-12-15T12:13:20;43.90;;;14.50;;
9062;SDS011;4567;42.118;24.746;2022-12-15T12:15:58;28.43;;;13.60;;
9062;SDS011;4567;42.118;24.746;2022-12-15T12:18:33;21.40;;;14.33;;
9062;SDS011;4567;42.118;24.746;2022-12-15T12:21:05;18.03;;;13.60;;
9062;SDS011;4567;42.118;24.746;2022-12-15T12:23:35;16.13;;;12.00;;
9062;SDS011;4567;42.118;24.746;2022-12-15T12:26:09;16.73;;;11.27;;
9062;SDS011;4567;42.118;24.746;2022-12-15T12:28:42;15.33;;;12.23;;
9062;SDS011;4567;42.118;24.746;2022-12-15T12:31:16;16.83;;;12.60;;
9062;SDS011;4567;42.118;24.746;2022-12-15T12:33:48;15.73;;;12.43;;
9062;SDS011;4567;42.118;24.746;2022-12-15T12:36:18;25.83;;;12.67;;
9062;SDS011;4567;42.118;24.746;2022-12-15T12:38:46;47.30;;;13.93;;
9062;SDS011;4567;42.118;24.746;2022-12-15T12:41:15;16.40;;;11.33;;
9062;SDS011;4567;42.118;24.746;2022-12-15T12:43:49;15.87;;;11.80;;
9062;SDS011;4567;42.118;24.746;2022-12-15T12:46:21;16.13;;;11.43;;
9062;SDS011;4567;42.118;24.746;2022-12-15T12:48:53;19.17;;;11.97;;
9062;SDS011;4567;42.118;24.746;2022-12-15T12:51:26;208.10;;;25.40;;
9062;SDS011;4567;42.118;24.746;2022-12-15T12:53:55;33.83;;;12.57;;
9062;SDS011;4567;42.118;24.746;2022-12-15T12:56:34;22.13;;;11.40;;
9062;SDS011;4567;42.118;24.746;2022-12-15T12:59:05;20.90;;;11.93;;
9062;SDS011;4567;42.118;24.746;2022-12-15T13:14:08;26.53;;;13.00;;
9062;SDS011;4567;42.118;24.746;2022-12-15T13:16:39;26.00;;;12.53;;
9062;SDS011;4567;42.118;24.746;2022-12-15T13:19:07;25.67;;;13.77;;
9062;SDS011;4567;42.118;24.746;2022-12-15T13:21:51;22.77;;;13.90;;
9062;SDS011;4567;42.118;24.746;2022-12-15T13:24:29;30.97;;;13.80;;
9062;SDS011;4567;42.118;24.746;2022-12-15T13:27:04;23.10;;;15.27;;
9062;SDS011;4567;42.118;24.746;2022-12-15T13:29:52;22.67;;;14.10;;
9062;SDS011;4567;42.118;24.746;2022-12-15T13:32:24;24.60;;;14.80;;
9062;SDS011;4567;42.118;24.746;2022-12-15T13:34:53;26.97;;;15.20;;
9062;SDS011;4567;42.118;24.746;2022-12-15T13:37:44;22.47;;;15.27;;
9062;SDS011;4567;42.118;24.746;2022-12-15T13:43:28;20.33;;;14.77;;
9062;SDS011;4567;42.118;24.746;2022-12-15T13:46:09;28.33;;;15.27;;
9062;SDS011;4567;42.118;24.746;2022-12-15T13:48:40;22.93;;;15.57;;
9062;SDS011;4567;42.118;24.746;2022-12-15T13:51:17;23.57;;;15.00;;
9062;SDS011;4567;42.118;24.746;2022-12-15T13:53:50;23.70;;;15.70;;
9062;SDS011;4567;42.118;24.746;2022-12-15T13:56:27;27.47;;;16.30;;
9062;SDS011;4567;42.118;24.746;2022-12-15T13:59:19;26.97;;;16.20;;
9062;SDS011;4567;42.118;24.746;2022-12-15T14:01:53;25.53;;;16.53;;
9062;SDS011;4567;42.118;24.746;2022-12-15T14:04:20;26.53;;;16.67;;
9062;SDS011;4567;42.118;24.746;2022-12-15T14:06:48;26.33;;;17.53;;
9062;SDS011;4567;42.118;24.746;2022-12-15T14:09:20;23.10;;;16.23;;
9062;SDS011;4567;42.118;24.746;2022-12-15T14:11:50;25.80;;;16.63;;
9062;SDS011;4567;42.118;24.746;2022-12-15T14:14:18;23.53;;;16.90;;
9062;SDS011;4567;42.118;24.746;2022-12-15T14:16:50;25.80;;;16.63;;
9062;SDS011;4567;42.118;24.746;2022-12-15T14:19:21;27.00;;;16.87;;
9062;SDS011;4567;42.118;24.746;2022-12-15T14:21:48;26.40;;;16.90;;
9062;SDS011;4567;42.118;24.746;2022-12-15T14:24:25;25.77;;;17.90;;
9062;SDS011;4567;42.118;24.746;2022-12-15T14:26:53;26.70;;;17.40;;
9062;SDS011;4567;42.118;24.746;2022-12-15T14:29:20;24.87;;;17.80;;
9062;SDS011;4567;42.118;24.746;2022-12-15T14:31:48;28.13;;;18.40;;
9062;SDS011;4567;42.118;24.746;2022-12-15T14:34:20;28.60;;;18.10;;
9062;SDS011;4567;42.118;24.746;2022-12-15T14:36:51;35.80;;;18.27;;
9062;SDS011;4567;42.118;24.746;2022-12-15T14:39:20;35.07;;;17.73;;
9062;SDS011;4567;42.118;24.746;2022-12-15T14:41:51;28.37;;;16.50;;
9062;SDS011;4567;42.118;24.746;2022-12-15T14:44:25;29.07;;;17.53;;
9062;SDS011;4567;42.118;24.746;2022-12-15T14:46:55;29.73;;;17.93;;
9062;SDS011;4567;42.118;24.746;2022-12-15T14:49:24;32.23;;;19.10;;
9062;SDS011;4567;42.118;24.746;2022-12-15T14:51:56;30.13;;;18.53;;
9062;SDS011;4567;42.118;24.746;2022-12-15T14:54:31;30.47;;;18.63;;
9062;SDS011;4567;42.118;24.746;2022-12-15T14:57:02;39.90;;;19.00;;
9062;SDS011;4567;42.118;24.746;2022-12-15T14:59:40;31.83;;;17.67;;
9062;SDS011;4567;42.118;24.746;2022-12-15T15:02:12;35.13;;;18.47;;
9062;SDS011;4567;42.118;24.746;2022-12-15T15:04:52;34.97;;;18.50;;
9062;SDS011;4567;42.118;24.746;2022-12-15T15:07:20;36.03;;;19.20;;
9062;SDS011;4567;42.118;24.746;2022-12-15T15:09:48;38.03;;;19.43;;
9062;SDS011;4567;42.118;24.746;2022-12-15T15:12:17;27.60;;;19.33;;
9062;SDS011;4567;42.118;24.746;2022-12-15T15:14:46;41.67;;;20.37;;
9062;SDS011;4567;42.118;24.746;2022-12-15T15:17:16;42.67;;;21.93;;
9062;SDS011;4567;42.118;24.746;2022-12-15T15:19:49;38.00;;;20.90;;
9062;SDS011;4567;42.118;24.746;2022-12-15T15:22:26;34.07;;;22.20;;
9062;SDS011;4567;42.118;24.746;2022-12-15T15:27:59;41.83;;;22.93;;
9062;SDS011;4567;42.118;24.746;2022-12-15T15:30:27;38.67;;;23.30;;
9062;SDS011;4567;42.118;24.746;2022-12-15T15:32:54;42.67;;;23.33;;
9062;SDS011;4567;42.118;24.746;2022-12-15T15:35:22;47.20;;;24.03;;
9062;SDS011;4567;42.118;24.746;2022-12-15T15:37:51;46.40;;;24.23;;
9062;SDS011;4567;42.118;24.746;2022-12-15T15:40:21;53.47;;;23.63;;
9062;SDS011;4567;42.118;24.746;2022-12-15T15:42:48;51.97;;;24.57;;